Time Latitude Longitude Accuracy (66% radius in meters) Altitude (meters) Speed (km/hour) Bearing (degrees) Battery (%) GPS flag
07:47:15 57.204584 60.120789 6.0679998397827 330 1.9900000095367 282.10000610352 48 1 delete
07:47:05 57.204580 60.120866 13.65299987793 331 0.28000000119209 128.80000305176 48 1 delete
07:46:55 57.204576 60.120815 13.65299987793 332 0 0 48 1 delete
07:46:44 57.204575 60.120800 13.65299987793 333 0 0 48 1 delete
07:46:34 57.204567 60.120798 13.65299987793 333 0 0 48 1 delete
07:46:23 57.204561 60.120806 13.65299987793 333 0 0 48 1 delete
07:46:13 57.204556 60.120806 13.65299987793 333 0 0 48 1 delete
07:46:10 57.204564 60.120816 15.170000076294 333 0 0 48 1 delete
07:45:57 57.204641 60.120848 15.170000076294 338 0 0 48 1 delete
07:45:42 57.204643 60.120844 10.618999481201 338 0 0 48 1 delete
07:45:30 57.204643 60.120844 13.65299987793 338 0 0 48 1 delete
07:45:19 57.204643 60.120844 6.0679998397827 338 0 0 48 1 delete
07:45:08 57.204641 60.120837 6.0679998397827 338 0 0 48 1 delete
07:44:58 57.204662 60.120846 15.170000076294 337 0 0 48 1 delete
07:44:47 57.204662 60.120845 15.170000076294 337 0 0 48 1 delete
07:44:41 57.204660 60.120847 15.170000076294 337 0 0 48 1 delete
07:44:37 57.204656 60.120848 15.170000076294 337 0 0 48 1 delete
07:44:26 57.204650 60.120831 15.170000076294 337 0 0 48 1 delete
07:44:16 57.204646 60.120841 15.170000076294 337 0.33000001311302 228.19999694824 48 1 delete
07:44:05 57.204628 60.120846 15.170000076294 335 0 0 48 1 delete
07:43:54 57.204605 60.120890 15.170000076294 332 0 0 48 1 delete
07:43:44 57.204577 60.120902 13.65299987793 332 0 0 48 1 delete
07:43:43 57.204575 60.120902 13.65299987793 331 0 0 48 1 delete
07:43:33 57.204565 60.120891 13.65299987793 330 0 0 48 1 delete
07:43:23 57.204566 60.120899 13.65299987793 329 0 0 48 1 delete
07:43:13 57.204564 60.120897 13.65299987793 330 0 0 48 1 delete
07:43:02 57.204559 60.120886 16.687000274658 330 0 0 48 1 delete
07:42:51 57.204536 60.120882 7.585000038147 329 0 0 48 1 delete
07:42:41 57.204535 60.120888 7.585000038147 329 0 0 48 1 delete
07:42:31 57.204533 60.120893 6.0679998397827 329 0 0 48 1 delete
07:42:20 57.204533 60.120895 6.0679998397827 329 0 0 48 1 delete
07:42:09 57.204532 60.120895 9.1019992828369 329 0 0 48 1 delete
07:41:59 57.204532 60.120896 6.0679998397827 329 0 0 48 1 delete
07:41:47 57.204531 60.120896 9.1019992828369 329 0 0 52 1 delete
07:41:36 57.204531 60.120900 9.1019992828369 329 0 0 52 1 delete
07:41:26 57.204543 60.120899 9.1019992828369 329 0.28999999165535 265 52 1 delete
07:41:16 57.204543 60.120906 4.5509996414185 328 0 0 52 1 delete
07:41:05 57.204543 60.120908 4.5509996414185 328 0 0 52 1 delete
07:40:55 57.204552 60.120911 7.585000038147 328 0.20999999344349 260 52 1 delete
07:40:44 57.204543 60.120941 6.0679998397827 329 0 0 52 1 delete
07:40:34 57.204534 60.120935 15.170000076294 329 0 0 52 1 delete
07:40:27 57.204485 60.120903 18.203998565674 323 0.73000001907349 300.5 52 1 delete
07:40:16 57.204402 60.121228 16.687000274658 324 0 0 52 1 delete
07:40:01 57.204405 60.121235 9.1019992828369 324 0 0 52 1 delete
07:39:50 57.204405 60.121235 12.135999679565 325 0 0 52 1 delete
07:39:41 57.204422 60.121182 10.618999481201 325 0.97000002861023 122.19999694824 52 1 delete
07:39:40 57.204426 60.121166 10.618999481201 325 0 0 52 1 delete
07:39:34 57.204458 60.121019 7.585000038147 323 2.210000038147 142.60000610352 52 1 delete
07:39:29 57.204511 60.120956 4.5509996414185 322 0.89999997615814 222.69999694824 52 1 delete
07:39:19 57.204519 60.120956 6.0679998397827 323 0 0 52 1 delete